Big Trout Lake Airport
CYTL : now visible

Airfield :











YOU CAN JOIN US ON...

 
LOGIN :

Register | Disclaimer

   EN    FR    IT 

 









Legend :    VFR   Marginal VFR   IFR   Intensive IFR   Very Intensive IFR
Visi :
Ceiling :
>= 8 km
>= 3000ft
5 to 8 km
1000 to 3000 ft
1500m to 5 km
500 to 1000 ft
800 to 1500m
200 to 500 ft
< 800m
< 200 ft
Symbols :   Thunderstorms  Fog  Heavy snow  Heavy precipitations  Wind > 20 kt






- Airport Elevation : 729 ft
- IATA code : YTL


CYTL - Big Trout Lake

CURRENT METAR :
  • 071008Z AUTO 33007G15KT 310V010 5SM -SN OVC015 M03/M03 A3003 RMK SLP187

EXPIRED METARs :
  • 071000Z AUTO 34008G15KT 6SM -SN BKN013 OVC020 M03/M03 A3003 RMK SLP185
  • 070900Z AUTO 34009KT 310V020 9SM -SN BKN013 OVC019 M03/M03 A3003 RMK SLP185
  • 070811Z AUTO 34008G16KT 300V010 6SM -SN SCT012 BKN017 BKN023 OVC036 M02/M03 A3002 RMK SLP183
  • 070756Z AUTO 33009G17KT 300V360 5SM -SN BKN014 OVC023 M02/M03 A3002 RMK SLP184

TAF TAF CYTL
Valid from the 07 at 08:00 until the 07 at 20:00 UTC


070738Z 0708/0720 34010G20KT P6SM -SN SCT008 OVC015
TEMPO 0708/0715 2SM -SN BKN008 OVC015
FM071500 32015G25KT P6SM BKN030
TEMPO 0715/0720 P6SM -SHSN OVC020 RMK FCST BASED ON AUTO OBS. NXT FCST BY 071400Z
CZWG FIR / North America



MET'MAP, your aeronautical weather chart ! - Copyright ORBIFLY December 2007 - Disclaimer

ORBIFLY MET'MAP TEAM :

Programming & Development : Alexandra Zaïnal
Concept & original design : Baudouin d'Aumeries
Assistance for programming : Marc-Olivier Méhu
Technical & hardware support : Manuel Goepfert

Contact : metmap@orbifly.com




SOURCES & CREDITS :

   NOAA       Earth
Advisory